Prestwick, United Kingdom

12:43 PM GMT on February 28, 2015 (GMT +0000)
Doonfoot | Change Station
CLOSE
Current Station
Personal Weather Station
Location: Ayr, SCOTLAND
Elevation: 72 ft
Nearby Weather Stations

Elev 72 ft 55.43 °N, 4.65 °W | Updated 12 minutes ago

Overcast
Overcast
46.9 °F
Feels Like 41 °F
N
12.8
Wind Variable Wind from SW
Gusts 21.8 mph

Today
High -- | Low -- °F
--% Chance of Precip.
Yesterday
High -- | Low -- °F
Precip. -- in
7:12 AM 5:50 PM
Waxing Gibbous, 77% visible
Pressure 29.42 in
Visibility 5.0 miles
Clouds Scattered Clouds 1500 ft
Scattered Clouds 4000 ft
Windchill 41 °F
Dew Point 42 °F
Humidity 82%
Rainfall 0.00 in
Snow Depth Not available.
UV 2 out of 12
Pollen Not available.
Air Quality Not available.
Flu Activity Not available.
METAR EGPK 281220Z 20014KT 8000 -RA SCT015 SCT040 08/05 Q0996

More Conditions Fewer Conditions

Pressure 29.42 in
Visibility 5.0 miles
Clouds Scattered Clouds 1500 ft
Scattered Clouds 4000 ft
Windchill 41 °F
Dew Point 42 °F
Humidity 82%
Rainfall 0.00 in
Snow Depth Not available.
UV 2 out of 12
Pollen Not available.
Air Quality Not available.
Flu Activity Not available.
METAR EGPK 281220Z 20014KT 8000 -RA SCT015 SCT040 08/05 Q0996

More Conditions Fewer Conditions

10-Day Weather Forecast

Almanac

Astronomy

Feb. 28, 2015 Rise Set
Actual Time
Civil Twilight
Nautical Twilight
Astronomical Twilight
Moon
Length of Visible Light
Length of Day
Tomorrow will be .
, % of the Moon is Illuminated

Today's Extremes

Country Highs Country Lows

Community

WunderPhotos

Upload Photos

1,801,000 photos uploaded!

WunderBlogs® & News

Nearby

Air Quality

  Air Quality AQ Index Pollutant
Not available.

Snow Depth

Station Depth Elevation

Earthquake Activity

City Distance Mag. Time & Date
Minimum magnitude displayed is 2.5.

Coastal Water Temperatures

Place Temperature

Nearby Weather Stations